createdAt,value
2017-12-06T00:00:40.317Z,102306.31
2017-12-06T00:03:08.051Z,102299.47
2017-12-06T00:05:35.669Z,102298.05
2017-12-06T00:08:03.394Z,102297.52
2017-12-06T00:10:31.036Z,102300.70
2017-12-06T00:13:04.380Z,102302.37
2017-12-06T00:15:37.633Z,102301.64
2017-12-06T00:18:05.313Z,102295.95
2017-12-06T00:20:33.024Z,102302.48
2017-12-06T00:23:00.741Z,102304.38
2017-12-06T00:25:28.460Z,102311.47
2017-12-06T00:27:56.250Z,102312.00
2017-12-06T00:30:23.884Z,102306.85
2017-12-06T00:32:51.584Z,102309.02
2017-12-06T00:35:19.208Z,102303.20
2017-12-06T00:37:46.934Z,102298.23
2017-12-06T00:40:14.641Z,102283.54
2017-12-06T00:42:42.303Z,102297.58
2017-12-06T00:45:09.919Z,102280.70
2017-12-06T00:47:37.678Z,102288.75
2017-12-06T00:50:05.365Z,102294.89
2017-12-06T00:52:33.101Z,102298.27
2017-12-06T00:55:00.800Z,102315.50
2017-12-06T00:57:28.537Z,102311.85
2017-12-06T00:59:56.223Z,102313.81
2017-12-06T01:02:23.965Z,102313.97
2017-12-06T01:04:51.651Z,102316.16
2017-12-06T01:07:19.345Z,102308.39
2017-12-06T01:09:47.072Z,102302.39
2017-12-06T01:12:14.791Z,102303.69
2017-12-06T01:14:42.541Z,102310.31
2017-12-06T01:17:10.155Z,102303.96
2017-12-06T01:19:37.932Z,102285.38
2017-12-06T01:22:05.637Z,102303.15
2017-12-06T01:24:33.322Z,102296.58
2017-12-06T01:27:00.993Z,102298.96
2017-12-06T01:29:28.733Z,102300.62
2017-12-06T01:31:56.355Z,102287.78
2017-12-06T01:34:24.145Z,102288.17
2017-12-06T01:36:51.898Z,102285.86
2017-12-06T01:39:19.607Z,102265.38
2017-12-06T01:41:47.286Z,102273.11
2017-12-06T01:44:15.041Z,102278.39
2017-12-06T01:46:42.665Z,102265.34
2017-12-06T01:49:10.395Z,102277.45
2017-12-06T01:51:38.082Z,102268.95
2017-12-06T01:54:05.761Z,102273.41
2017-12-06T01:56:33.465Z,102273.89
2017-12-06T01:59:01.195Z,102272.48
2017-12-06T02:01:28.815Z,102276.06
2017-12-06T02:03:56.548Z,102274.02
2017-12-06T02:06:24.286Z,102277.89
2017-12-06T02:08:52.035Z,102285.80
2017-12-06T02:11:19.705Z,102279.11
2017-12-06T02:13:47.366Z,102279.53
2017-12-06T02:16:15.068Z,102274.16
2017-12-06T02:18:42.798Z,102273.44
2017-12-06T02:21:10.483Z,102274.67
2017-12-06T02:23:38.172Z,102266.91
2017-12-06T02:26:06.393Z,102264.01
2017-12-06T02:28:34.134Z,102256.09
2017-12-06T02:31:01.836Z,102249.31
2017-12-06T02:33:29.661Z,102252.05
2017-12-06T02:35:57.349Z,102243.73
2017-12-06T02:38:25.054Z,102239.83
2017-12-06T02:41:04.503Z,102241.39
2017-12-06T02:43:43.952Z,102227.23
2017-12-06T02:46:11.652Z,102228.47
2017-12-06T02:48:39.382Z,102212.95
2017-12-06T02:51:07.093Z,102226.57
2017-12-06T02:53:34.806Z,102228.73
2017-12-06T02:56:02.541Z,102209.66
2017-12-06T02:58:30.242Z,102210.77
2017-12-06T03:00:57.973Z,102212.02
2017-12-06T03:03:25.657Z,102206.33
2017-12-06T03:05:53.408Z,102204.40
2017-12-06T03:08:21.097Z,102205.58
2017-12-06T03:10:48.767Z,102199.20
2017-12-06T03:13:16.483Z,102205.01
2017-12-06T03:15:44.166Z,102207.66
2017-12-06T03:18:11.856Z,102196.00
2017-12-06T03:20:39.573Z,102190.36
2017-12-06T03:23:07.265Z,102185.54
2017-12-06T03:25:35.010Z,102182.02
2017-12-06T03:28:02.732Z,102189.13
2017-12-06T03:30:30.480Z,102196.45
2017-12-06T03:32:58.225Z,102180.81
2017-12-06T03:35:25.960Z,102185.66
2017-12-06T03:37:53.640Z,102180.21
2017-12-06T03:40:21.398Z,102177.30
2017-12-06T03:42:49.177Z,102177.17
2017-12-06T03:45:16.928Z,102171.61
2017-12-06T03:47:44.641Z,102176.45
2017-12-06T03:50:12.327Z,102176.80
2017-12-06T03:52:40.087Z,102175.84
2017-12-06T03:55:07.784Z,102176.48
2017-12-06T03:57:35.507Z,102165.95
2017-12-06T04:00:03.193Z,102182.30
2017-12-06T04:02:30.936Z,102183.69
2017-12-06T04:04:58.611Z,102180.61
2017-12-06T04:07:26.380Z,102161.09
2017-12-06T04:09:54.064Z,102166.23
2017-12-06T04:12:21.792Z,102165.57
2017-12-06T04:14:49.507Z,102164.95
2017-12-06T04:17:17.260Z,102158.02
2017-12-06T04:19:44.944Z,102165.25
2017-12-06T04:22:12.691Z,102164.95
2017-12-06T04:24:40.392Z,102153.59
2017-12-06T04:27:08.126Z,102155.57
2017-12-06T04:29:35.841Z,102161.14
2017-12-06T04:32:03.627Z,102152.26
2017-12-06T04:34:31.375Z,102156.94
2017-12-06T04:36:59.073Z,102159.04
2017-12-06T04:39:26.840Z,102160.42
2017-12-06T04:41:54.537Z,102162.08
2017-12-06T04:44:22.309Z,102163.59
2017-12-06T04:46:50.005Z,102163.47
2017-12-06T04:49:17.747Z,102160.57
2017-12-06T04:51:45.463Z,102161.14
2017-12-06T04:54:13.218Z,102150.58
2017-12-06T04:56:40.932Z,102159.19
2017-12-06T04:59:08.685Z,102154.31
2017-12-06T05:01:36.399Z,102156.68
2017-12-06T05:04:04.233Z,102147.78
2017-12-06T05:06:31.937Z,102144.46
2017-12-06T05:08:59.689Z,102146.39
2017-12-06T05:11:27.387Z,102158.77
2017-12-06T05:13:55.129Z,102159.05
2017-12-06T05:16:22.759Z,102151.84
2017-12-06T05:18:50.478Z,102156.27
2017-12-06T05:21:18.180Z,102145.59
2017-12-06T05:23:45.916Z,102147.95
2017-12-06T05:26:13.630Z,102148.55
2017-12-06T05:28:41.409Z,102159.66
2017-12-06T05:31:09.041Z,102159.08
2017-12-06T05:33:36.848Z,102161.28
2017-12-06T05:36:04.544Z,102153.52
2017-12-06T05:38:32.259Z,102146.34
2017-12-06T05:40:59.950Z,102139.14
2017-12-06T05:43:27.709Z,102142.33
2017-12-06T05:45:55.435Z,102143.03
2017-12-06T05:48:23.226Z,102151.88
2017-12-06T05:50:50.935Z,102149.11
2017-12-06T05:53:19.712Z,102149.11
2017-12-06T05:55:47.334Z,102134.41
2017-12-06T05:58:15.031Z,102148.69
2017-12-06T06:00:42.709Z,102140.08
2017-12-06T06:03:10.353Z,102143.81
2017-12-06T06:05:38.024Z,102141.78
2017-12-06T06:08:05.670Z,102145.92
2017-12-06T06:10:33.375Z,102146.20
2017-12-06T06:13:01.029Z,102142.70
2017-12-06T06:15:28.704Z,102146.15
2017-12-06T06:17:56.330Z,102137.23
2017-12-06T06:20:24.007Z,102124.55
2017-12-06T06:22:51.708Z,102136.05
2017-12-06T06:25:19.463Z,102133.84
2017-12-06T06:27:47.170Z,102136.62
2017-12-06T06:30:14.901Z,102134.37
2017-12-06T06:32:42.633Z,102128.84
2017-12-06T06:35:10.373Z,102135.67
2017-12-06T06:37:38.071Z,102134.78
2017-12-06T06:40:05.747Z,102126.88
2017-12-06T06:42:33.432Z,102134.08
2017-12-06T06:45:01.216Z,102136.30
2017-12-06T06:47:28.928Z,102127.76
2017-12-06T06:49:56.687Z,102144.23
2017-12-06T06:52:24.364Z,102150.10
2017-12-06T06:54:52.102Z,102147.03
2017-12-06T06:57:19.752Z,102143.13
2017-12-06T06:59:47.470Z,102152.55
2017-12-06T07:02:15.170Z,102152.97
2017-12-06T07:04:42.909Z,102155.66
2017-12-06T07:07:10.536Z,102160.08
2017-12-06T07:09:38.288Z,102158.69
2017-12-06T07:12:05.981Z,102149.78
2017-12-06T07:14:33.734Z,102145.37
2017-12-06T07:17:01.429Z,102152.17
2017-12-06T07:19:29.214Z,102141.48
2017-12-06T07:21:56.913Z,102153.58
2017-12-06T07:24:24.664Z,102139.70
2017-12-06T07:26:52.348Z,102134.87
2017-12-06T07:29:20.020Z,102143.48
2017-12-06T07:31:47.709Z,102122.87
2017-12-06T07:34:15.390Z,102141.13
2017-12-06T07:36:43.062Z,102144.22
2017-12-06T07:39:10.740Z,102148.95
2017-12-06T07:41:38.364Z,102136.34
2017-12-06T07:44:06.062Z,102139.79
2017-12-06T07:46:33.743Z,102139.33
2017-12-06T07:49:01.392Z,102132.25
2017-12-06T07:51:29.131Z,102137.69
2017-12-06T07:53:56.865Z,102146.39
2017-12-06T07:56:24.595Z,102130.70
2017-12-06T07:58:52.331Z,102132.27
2017-12-06T08:01:19.988Z,102132.67
2017-12-06T08:03:47.635Z,102141.27
2017-12-06T08:06:15.335Z,102141.41
2017-12-06T08:08:42.964Z,102138.66
2017-12-06T08:11:10.638Z,102139.06
2017-12-06T08:13:38.305Z,102131.70
2017-12-06T08:16:06.006Z,102139.20
2017-12-06T08:18:33.694Z,102143.66
2017-12-06T08:21:01.458Z,102139.77
2017-12-06T08:23:29.158Z,102145.98
2017-12-06T08:25:56.911Z,102142.40
2017-12-06T08:28:24.592Z,102139.20
2017-12-06T08:30:52.325Z,102125.34
2017-12-06T08:33:20.084Z,102139.22
2017-12-06T08:35:47.824Z,102138.32
2017-12-06T08:38:15.523Z,102127.92
2017-12-06T08:40:43.269Z,102132.30
2017-12-06T08:43:10.969Z,102134.52
2017-12-06T08:45:38.662Z,102136.88
2017-12-06T08:48:06.372Z,102132.88
2017-12-06T08:50:34.104Z,102132.62
2017-12-06T08:53:01.811Z,102140.27
2017-12-06T08:55:29.542Z,102130.20
2017-12-06T08:57:57.236Z,102127.86
2017-12-06T09:00:25.018Z,102123.89
2017-12-06T09:02:52.721Z,102128.86
2017-12-06T09:05:20.462Z,102138.36
2017-12-06T09:07:48.152Z,102130.73
2017-12-06T09:10:15.915Z,102144.77
2017-12-06T09:12:43.562Z,102134.45
2017-12-06T09:15:11.306Z,102130.53
2017-12-06T09:17:39.032Z,102140.34
2017-12-06T09:20:06.792Z,102134.25
2017-12-06T09:22:34.493Z,102140.33
2017-12-06T09:25:02.244Z,102139.20
2017-12-06T09:27:29.954Z,102150.02
2017-12-06T09:29:57.704Z,102140.31
2017-12-06T09:32:25.417Z,102144.47
2017-12-06T09:34:53.248Z,102145.48
2017-12-06T09:37:20.927Z,102159.75
2017-12-06T09:39:48.689Z,102152.42
2017-12-06T09:42:16.372Z,102146.98
2017-12-06T09:44:44.057Z,102152.67
2017-12-06T09:47:11.793Z,102151.58
2017-12-06T09:49:39.485Z,102166.28
2017-12-06T09:52:07.208Z,102153.25
2017-12-06T09:54:34.894Z,102156.45
2017-12-06T09:57:02.642Z,102152.87
2017-12-06T09:59:30.356Z,102152.47
2017-12-06T10:01:58.056Z,102149.14
2017-12-06T10:04:25.805Z,102154.84
2017-12-06T10:06:53.501Z,102147.65
2017-12-06T10:09:21.256Z,102145.02
2017-12-06T10:11:48.952Z,102145.56
2017-12-06T10:14:16.708Z,102125.73
2017-12-06T10:16:44.419Z,102137.73
2017-12-06T10:19:12.157Z,102133.16
2017-12-06T10:21:39.842Z,102119.34
2017-12-06T10:24:07.573Z,102118.06
2017-12-06T10:26:35.272Z,102126.56
2017-12-06T10:29:03.020Z,102113.92
2017-12-06T10:31:30.713Z,102122.31
2017-12-06T10:33:58.506Z,102104.59
2017-12-06T10:36:26.206Z,102104.06
2017-12-06T10:38:53.960Z,102106.81
2017-12-06T10:41:21.654Z,102099.88
2017-12-06T10:43:49.351Z,102101.72
2017-12-06T10:46:17.089Z,102106.29
2017-12-06T10:48:44.840Z,102094.34
2017-12-06T10:51:12.564Z,102092.95
2017-12-06T10:53:40.262Z,102102.39
2017-12-06T10:56:08.026Z,102089.59
2017-12-06T10:58:35.771Z,102097.81
2017-12-06T11:01:03.531Z,102090.75
2017-12-06T11:03:31.240Z,102090.17
2017-12-06T11:05:59.027Z,102093.65
2017-12-06T11:08:26.722Z,102088.39
2017-12-06T11:10:54.461Z,102081.44
2017-12-06T11:13:22.101Z,102088.38
2017-12-06T11:15:49.862Z,102091.13
2017-12-06T11:18:17.589Z,102078.70
2017-12-06T11:20:45.328Z,102081.05
2017-12-06T11:23:13.019Z,102079.67
2017-12-06T11:25:40.766Z,102075.01
2017-12-06T11:28:08.459Z,102075.28
2017-12-06T11:30:36.219Z,102074.17
2017-12-06T11:33:03.940Z,102074.04
2017-12-06T11:35:31.677Z,102078.33
2017-12-06T11:37:59.415Z,102074.46
2017-12-06T11:40:27.113Z,102077.67
2017-12-06T11:42:54.841Z,102073.73
2017-12-06T11:45:22.538Z,102079.41
2017-12-06T11:47:50.202Z,102087.16
2017-12-06T11:50:17.940Z,102087.98
2017-12-06T11:52:45.665Z,102081.76
2017-12-06T11:55:13.399Z,102081.45
2017-12-06T11:57:41.157Z,102081.05
2017-12-06T12:00:08.963Z,102081.20
2017-12-06T12:02:36.711Z,102056.91
2017-12-06T12:05:04.402Z,102081.59
2017-12-06T12:07:32.195Z,102085.22
2017-12-06T12:09:59.832Z,102087.73
2017-12-06T12:12:27.515Z,102082.31
2017-12-06T12:14:55.136Z,102077.91
2017-12-06T12:17:22.816Z,102092.77
2017-12-06T12:19:50.440Z,102079.03
2017-12-06T12:22:18.152Z,102071.39
2017-12-06T12:24:45.768Z,102079.05
2017-12-06T12:27:13.424Z,102069.89
2017-12-06T12:29:41.053Z,102068.36
2017-12-06T12:32:08.727Z,102062.53
2017-12-06T12:34:36.398Z,102077.11
2017-12-06T12:37:04.083Z,102066.14
2017-12-06T12:39:31.716Z,102071.00
2017-12-06T12:41:59.405Z,102085.00
2017-12-06T12:44:27.034Z,102082.09
2017-12-06T12:46:54.842Z,102078.91
2017-12-06T12:49:22.487Z,102082.41
2017-12-06T12:51:50.194Z,102081.83
2017-12-06T12:54:17.872Z,102082.83
2017-12-06T12:56:45.579Z,102090.04
2017-12-06T12:59:13.222Z,102079.78
2017-12-06T13:01:40.929Z,102074.37
2017-12-06T13:04:08.549Z,102066.32
2017-12-06T13:06:36.341Z,102064.93
2017-12-06T13:09:04.041Z,102062.58
2017-12-06T13:11:31.845Z,102077.86
2017-12-06T13:13:59.557Z,102085.63
2017-12-06T13:16:27.251Z,102071.05
2017-12-06T13:18:55.629Z,102051.88
2017-12-06T13:21:23.421Z,102069.22
2017-12-06T13:23:51.134Z,102071.56
2017-12-06T13:26:18.869Z,102057.09
2017-12-06T13:28:46.607Z,102066.98
2017-12-06T13:31:14.326Z,102070.72
2017-12-06T13:33:42.062Z,102063.20
2017-12-06T13:36:09.767Z,102070.84
2017-12-06T13:38:37.509Z,102065.64
2017-12-06T13:41:05.135Z,102068.70
2017-12-06T13:43:32.802Z,102059.95
2017-12-06T13:46:00.511Z,102078.80
2017-12-06T13:48:28.220Z,102062.27
2017-12-06T13:50:55.864Z,102070.86
2017-12-06T13:53:23.615Z,102058.53
2017-12-06T13:55:51.315Z,102052.42
2017-12-06T13:58:19.066Z,102080.96
2017-12-06T14:00:46.828Z,102063.75
2017-12-06T14:03:14.517Z,102071.41
2017-12-06T14:05:42.240Z,102061.95
2017-12-06T14:08:10.034Z,102057.13
2017-12-06T14:10:37.740Z,102060.45
2017-12-06T14:13:05.487Z,102059.63
2017-12-06T14:15:33.176Z,102057.38
2017-12-06T14:18:00.929Z,102061.00
2017-12-06T14:20:28.658Z,102061.56
2017-12-06T14:22:56.430Z,102073.21
2017-12-06T14:25:24.163Z,102067.77
2017-12-06T14:27:51.947Z,102069.83
2017-12-06T14:30:19.656Z,102069.15
2017-12-06T14:32:47.405Z,102077.05
2017-12-06T14:35:15.112Z,102065.55
2017-12-06T14:37:42.861Z,102068.61
2017-12-06T14:40:10.564Z,102072.05
2017-12-06T14:42:38.257Z,102070.52
2017-12-06T14:45:05.884Z,102071.77
2017-12-06T14:47:33.620Z,102050.16
2017-12-06T14:50:01.386Z,102070.98
2017-12-06T14:52:29.125Z,102071.95
2017-12-06T14:54:56.869Z,102071.95
2017-12-06T14:57:24.563Z,102062.64
2017-12-06T14:59:52.255Z,102065.98
2017-12-06T15:02:19.934Z,102037.70
2017-12-06T15:04:47.620Z,102030.63
2017-12-06T15:07:15.352Z,102058.63
2017-12-06T15:09:43.040Z,102056.71
2017-12-06T15:12:10.806Z,102058.66
2017-12-06T15:14:38.506Z,102053.95
2017-12-06T15:17:06.151Z,102049.07
2017-12-06T15:19:33.816Z,102060.44
2017-12-06T15:22:01.446Z,102059.89
2017-12-06T15:24:29.113Z,102051.83
2017-12-06T15:26:56.741Z,102058.52
2017-12-06T15:29:24.450Z,102044.35
2017-12-06T15:31:52.093Z,102052.42
2017-12-06T15:34:19.840Z,102044.76
2017-12-06T15:36:47.476Z,102041.44
2017-12-06T15:39:15.152Z,102038.11
2017-12-06T15:41:42.790Z,102038.12
2017-12-06T15:44:10.481Z,102035.48
2017-12-06T15:46:38.109Z,102039.34
2017-12-06T15:49:05.794Z,102035.59
2017-12-06T15:51:33.535Z,102037.57
2017-12-06T15:54:01.280Z,102031.73
2017-12-06T15:56:28.989Z,102027.16
2017-12-06T15:58:56.801Z,102032.45
2017-12-06T16:01:24.519Z,102031.61
2017-12-06T16:03:52.311Z,102016.37
2017-12-06T16:06:19.996Z,102030.80
2017-12-06T16:08:47.750Z,102020.83
2017-12-06T16:11:15.450Z,102019.98
2017-12-06T16:13:43.176Z,102004.30
2017-12-06T16:16:10.795Z,102022.49
2017-12-06T16:18:38.550Z,102014.30
2017-12-06T16:21:06.228Z,102021.91
2017-12-06T16:23:33.978Z,102018.73
2017-12-06T16:26:01.609Z,102014.31
2017-12-06T16:28:29.344Z,102021.37
2017-12-06T16:30:57.089Z,102015.56
2017-12-06T16:33:24.857Z,102010.80
2017-12-06T16:36:04.404Z,102011.09
2017-12-06T16:38:32.188Z,102019.97
2017-12-06T16:40:59.881Z,102015.80
2017-12-06T16:43:27.680Z,102015.67
2017-12-06T16:45:55.323Z,102016.78
2017-12-06T16:48:23.016Z,102020.52
2017-12-06T16:50:50.681Z,102010.00
2017-12-06T16:53:18.511Z,102020.52
2017-12-06T16:55:46.188Z,102023.18
2017-12-06T16:58:13.943Z,102029.02
2017-12-06T17:00:41.585Z,102005.84
2017-12-06T17:03:09.797Z,102022.63
2017-12-06T17:05:37.587Z,102005.82
2017-12-06T17:08:05.333Z,102021.08
2017-12-06T17:10:33.012Z,102015.38
2017-12-06T17:13:00.761Z,102025.49
2017-12-06T17:15:28.481Z,102022.70
2017-12-06T17:17:56.329Z,102022.45
2017-12-06T17:20:24.113Z,102021.61
2017-12-06T17:22:51.868Z,102021.50
2017-12-06T17:25:19.599Z,102019.26
2017-12-06T17:27:47.243Z,102018.12
2017-12-06T17:30:26.732Z,102020.92
2017-12-06T17:32:54.450Z,102026.48
2017-12-06T17:35:22.245Z,102021.22
2017-12-06T17:37:49.976Z,102016.20
2017-12-06T17:40:17.757Z,102009.14
2017-12-06T17:42:45.385Z,102010.66
2017-12-06T17:45:13.092Z,102015.79
2017-12-06T17:47:40.743Z,102024.95
2017-12-06T17:50:20.443Z,102026.23
2017-12-06T17:52:48.260Z,102020.39
2017-12-06T17:55:16.625Z,102020.80
2017-12-06T17:57:44.396Z,102017.06
2017-12-06T18:00:12.371Z,102014.84
2017-12-06T18:02:40.089Z,102015.67
2017-12-06T18:05:09.882Z,102024.13
2017-12-06T18:07:37.659Z,102022.64
2017-12-06T18:10:05.601Z,102023.17
2017-12-06T18:12:33.494Z,102024.28
2017-12-06T18:15:01.189Z,102029.56
2017-12-06T18:17:28.850Z,102027.86
2017-12-06T18:19:56.689Z,102027.45
2017-12-06T18:22:24.393Z,102025.08
2017-12-06T18:24:52.353Z,102018.72
2017-12-06T18:27:20.274Z,102006.91
2017-12-06T18:29:48.217Z,102023.14
2017-12-06T18:32:16.054Z,102027.04
2017-12-06T18:34:43.947Z,102016.48
2017-12-06T18:37:11.927Z,102024.11
2017-12-06T18:39:39.867Z,102019.52
2017-12-06T18:42:07.826Z,102006.33
2017-12-06T18:44:36.530Z,102009.09
2017-12-06T18:47:04.439Z,102012.30
2017-12-06T18:49:33.433Z,102022.03
2017-12-06T18:52:02.013Z,102009.27
2017-12-06T18:54:29.886Z,102001.09
2017-12-06T18:56:57.600Z,102019.81
2017-12-06T18:59:25.518Z,102020.23
2017-12-06T19:01:53.275Z,102015.97
2017-12-06T19:04:21.939Z,102008.03
2017-12-06T19:06:49.681Z,102021.22
2017-12-06T19:09:17.471Z,102012.60
2017-12-06T19:11:45.225Z,102011.61
2017-12-06T19:14:13.078Z,102015.79
2017-12-06T19:16:40.828Z,102005.27
2017-12-06T19:19:08.617Z,102003.05
2017-12-06T19:21:36.435Z,102004.02
2017-12-06T19:24:04.180Z,102006.91
2017-12-06T19:26:32.939Z,102008.17
2017-12-06T19:29:01.672Z,101998.88
2017-12-06T19:31:31.948Z,102001.91
2017-12-06T19:34:00.458Z,102003.17
2017-12-06T19:36:30.842Z,101994.44
2017-12-06T19:39:01.163Z,102004.02
2017-12-06T19:41:29.111Z,101992.37
2017-12-06T19:43:57.620Z,101989.03
2017-12-06T19:46:31.741Z,101998.31
2017-12-06T19:49:03.524Z,101996.26
2017-12-06T19:51:33.952Z,101990.41
2017-12-06T19:54:03.717Z,101986.24
2017-12-06T19:56:33.317Z,101983.75
2017-12-06T19:59:01.085Z,101978.48
2017-12-06T20:01:33.401Z,101972.78
2017-12-06T20:04:01.884Z,101980.02
2017-12-06T20:06:32.629Z,101982.23
2017-12-06T20:09:01.047Z,101985.98
2017-12-06T20:11:30.742Z,101975.55
2017-12-06T20:14:01.960Z,101980.70
2017-12-06T20:16:30.821Z,101976.83
2017-12-06T20:19:01.413Z,101964.19
2017-12-06T20:21:32.143Z,101965.84
2017-12-06T20:24:03.152Z,101968.62
2017-12-06T20:26:31.142Z,101968.20
2017-12-06T20:28:58.881Z,101977.77
2017-12-06T20:31:26.760Z,101963.49
2017-12-06T20:33:54.635Z,101963.36
2017-12-06T20:36:23.499Z,101955.71
2017-12-06T20:38:51.348Z,101964.04
2017-12-06T20:41:19.317Z,101953.78
2017-12-06T20:43:47.167Z,101952.13
2017-12-06T20:46:15.053Z,101951.55
2017-12-06T20:48:42.976Z,101951.84
2017-12-06T20:51:10.921Z,101951.01
2017-12-06T20:53:38.818Z,101951.59
2017-12-06T20:56:07.496Z,101949.95
2017-12-06T20:58:36.435Z,101939.91
2017-12-06T21:01:05.205Z,101951.02
2017-12-06T21:03:33.849Z,101934.39
2017-12-06T21:06:01.782Z,101938.94
2017-12-06T21:08:29.630Z,101944.36
2017-12-06T21:10:57.994Z,101943.02
2017-12-06T21:13:26.714Z,101946.89
2017-12-06T21:15:54.619Z,101940.88
2017-12-06T21:18:22.473Z,101943.69
2017-12-06T21:20:50.375Z,101935.50
2017-12-06T21:23:18.160Z,101945.50
2017-12-06T21:25:46.092Z,101938.69
2017-12-06T21:28:13.973Z,101937.59
2017-12-06T21:30:41.824Z,101940.66
2017-12-06T21:33:09.647Z,101946.89
2017-12-06T21:35:37.307Z,101938.27
2017-12-06T21:38:05.080Z,101939.67
2017-12-06T21:40:32.788Z,101936.47
2017-12-06T21:43:00.469Z,101938.98
2017-12-06T21:45:28.106Z,101934.41
2017-12-06T21:47:55.774Z,101929.69
2017-12-06T21:50:23.399Z,101930.78
2017-12-06T21:52:51.090Z,101924.69
2017-12-06T21:55:18.716Z,101925.95
2017-12-06T21:57:46.385Z,101921.91
2017-12-06T22:00:14.015Z,101915.39
2017-12-06T22:02:41.678Z,101915.52
2017-12-06T22:05:09.300Z,101908.45
2017-12-06T22:07:37.034Z,101913.71
2017-12-06T22:10:04.734Z,101910.80
2017-12-06T22:12:32.480Z,101912.48
2017-12-06T22:15:00.172Z,101895.25
2017-12-06T22:17:27.898Z,101905.22
2017-12-06T22:19:55.540Z,101890.37
2017-12-06T22:22:23.217Z,101894.70
2017-12-06T22:24:50.900Z,101896.08
2017-12-06T22:27:18.584Z,101897.30
2017-12-06T22:29:46.270Z,101888.30
2017-12-06T22:32:13.935Z,101874.13
2017-12-06T22:34:41.651Z,101870.39
2017-12-06T22:37:09.380Z,101869.16
2017-12-06T22:39:37.004Z,101870.97
2017-12-06T22:42:04.732Z,101876.23
2017-12-06T22:44:32.360Z,101870.55
2017-12-06T22:47:00.109Z,101858.61
2017-12-06T22:49:27.834Z,101866.52
2017-12-06T22:51:55.500Z,101871.95
2017-12-06T22:54:23.180Z,101857.39
2017-12-06T22:56:50.877Z,101847.34
2017-12-06T22:59:18.563Z,101854.58
2017-12-06T23:01:46.274Z,101846.24
2017-12-06T23:04:13.954Z,101840.70
2017-12-06T23:06:41.632Z,101844.70
2017-12-06T23:09:09.371Z,101831.66
2017-12-06T23:11:37.078Z,101833.17
2017-12-06T23:14:04.808Z,101826.39
2017-12-06T23:16:32.452Z,101820.97
2017-12-06T23:19:00.127Z,101820.01
2017-12-06T23:21:27.770Z,101817.52
2017-12-06T23:23:55.523Z,101818.91
2017-12-06T23:26:23.230Z,101817.36
2017-12-06T23:28:51.007Z,101812.23
2017-12-06T23:31:18.634Z,101809.74
2017-12-06T23:33:46.383Z,101800.31
2017-12-06T23:36:14.030Z,101798.93
2017-12-06T23:38:41.707Z,101789.77
2017-12-06T23:41:09.421Z,101789.61
2017-12-06T23:43:37.168Z,101788.51
2017-12-06T23:46:04.807Z,101790.19
2017-12-06T23:48:32.532Z,101784.47
2017-12-06T23:51:00.276Z,101776.44
2017-12-06T23:53:28.019Z,101782.54
2017-12-06T23:55:55.652Z,101776.44
2017-12-06T23:58:23.392Z,101775.05
